Time;durP1;ratioP1;P1;durP2;ratioP2;P2;SDS_P1;SDS_P2;PMS_P1;PMS_P2;Temp;Humidity;BMP_temperature;BMP_pressure;BME280_temperature;BME280_humidity;BME280_pressure;Samples;Min_cycle;Max_cycle;Signal;HPM_P1;HPM_P2
2021/04/08 00:01:05;;;;;;;11.30;4.30;;;3.10;99.90;;;;;;4984272;28;20227;-79
2021/04/08 00:03:31;;;;;;;14.03;3.90;;;2.90;99.90;;;;;;4982441;28;20251;-79
2021/04/08 00:05:56;;;;;;;7.33;2.93;;;3.00;99.90;;;;;;4983995;28;20435;-79
2021/04/08 00:08:22;;;;;;;8.30;4.80;;;2.90;99.90;;;;;;4983640;28;20604;-82
2021/04/08 00:10:47;;;;;;;7.53;4.30;;;3.00;99.90;;;;;;4974376;28;20201;-80
2021/04/08 00:13:13;;;;;;;13.30;4.17;;;3.10;99.90;;;;;;4972742;28;20181;-79
2021/04/08 00:15:38;;;;;;;13.40;5.63;;;2.90;99.90;;;;;;4985946;28;20203;-79
2021/04/08 00:18:04;;;;;;;5.83;3.70;;;3.00;99.90;;;;;;4979923;28;20860;-78
2021/04/08 00:20:29;;;;;;;6.43;3.33;;;3.10;99.90;;;;;;4996005;28;20206;-78
2021/04/08 00:22:55;;;;;;;3.97;3.30;;;3.10;99.90;;;;;;4973259;28;20233;-78
2021/04/08 00:25:20;;;;;;;8.90;4.20;;;3.10;99.90;;;;;;4974954;28;20675;-78
2021/04/08 00:27:46;;;;;;;11.63;3.63;;;2.90;99.90;;;;;;4973385;28;20227;-80
2021/04/08 00:30:13;;;;;;;9.00;3.40;;;3.00;99.90;;;;;;4972133;28;20204;-80
2021/04/08 00:32:39;;;;;;;10.97;3.67;;;3.00;99.90;;;;;;4974430;28;20248;-79
2021/04/08 00:35:05;;;;;;;8.50;3.40;;;3.00;99.90;;;;;;4974665;28;20479;-79
2021/04/08 00:37:31;;;;;;;8.20;3.20;;;2.90;99.90;;;;;;4975152;28;20644;-78
2021/04/08 00:39:57;;;;;;;7.00;4.20;;;2.90;99.90;;;;;;4990315;28;20534;-79
2021/04/08 00:42:23;;;;;;;4.33;2.70;;;3.00;99.90;;;;;;4982533;28;20193;-80
2021/04/08 00:44:49;;;;;;;5.40;2.70;;;3.00;99.90;;;;;;4974695;28;20181;-78
2021/04/08 00:47:14;;;;;;;15.43;4.63;;;3.00;99.90;;;;;;4984095;28;20443;-79
2021/04/08 00:49:40;;;;;;;12.60;3.50;;;3.00;99.90;;;;;;4984015;28;20205;-79
2021/04/08 00:52:06;;;;;;;6.80;3.20;;;3.00;99.90;;;;;;4987425;28;20174;-80
2021/04/08 00:54:31;;;;;;;4.57;2.87;;;3.00;99.90;;;;;;4987300;28;20177;-79
2021/04/08 00:56:57;;;;;;;10.10;3.13;;;3.00;99.90;;;;;;4988909;28;20451;-79
2021/04/08 00:59:23;;;;;;;6.80;3.20;;;3.00;99.90;;;;;;4987459;28;20563;-78
2021/04/08 01:01:49;;;;;;;11.73;3.57;;;2.90;99.90;;;;;;4978381;28;20456;-81
2021/04/08 01:04:15;;;;;;;6.17;2.83;;;3.00;99.90;;;;;;4981010;28;20185;-78
2021/04/08 01:06:41;;;;;;;6.37;3.10;;;2.90;99.90;;;;;;4973730;28;20491;-79
2021/04/08 01:09:06;;;;;;;5.17;3.40;;;2.90;99.90;;;;;;4973285;28;20177;-79
2021/04/08 01:11:32;;;;;;;6.93;2.77;;;2.80;99.90;;;;;;4973282;28;20194;-79
2021/04/08 01:13:58;;;;;;;13.10;3.97;;;2.90;99.90;;;;;;4975739;28;20227;-77
2021/04/08 01:16:43;;;;;;;6.83;4.13;;;2.90;99.90;;;;;;4988381;28;20170;-78
2021/04/08 01:19:46;;;;;;;8.00;3.37;;;2.90;99.90;;;;;;4984818;28;20437;-79
2021/04/08 01:22:30;;;;;;;11.63;3.63;;;2.90;99.90;;;;;;4966813;28;20433;-78
2021/04/08 01:25:30;;;;;;;13.93;4.20;;;2.80;99.90;;;;;;4980179;28;20439;-78
2021/04/08 01:28:17;;;;;;;9.40;3.93;;;2.90;99.90;;;;;;4971759;28;20420;-79
2021/04/08 01:30:44;;;;;;;8.90;3.67;;;3.00;99.90;;;;;;4974624;28;21180;-79
2021/04/08 01:33:16;;;;;;;9.03;3.73;;;3.00;99.90;;;;;;4972615;28;20789;-79
2021/04/08 01:35:43;;;;;;;13.63;4.07;;;2.90;99.90;;;;;;4973180;28;20394;-78
2021/04/08 01:38:28;;;;;;;8.37;3.67;;;2.80;99.90;;;;;;4976567;28;20408;-79
2021/04/08 01:40:54;;;;;;;9.77;3.73;;;2.90;99.90;;;;;;4991850;28;20554;-79
2021/04/08 01:43:35;;;;;;;12.60;4.90;;;3.00;99.90;;;;;;4976429;28;20474;-79
2021/04/08 01:46:02;;;;;;;9.47;3.83;;;2.90;99.90;;;;;;4960252;28;20434;-78
2021/04/08 01:48:30;;;;;;;9.67;4.67;;;2.90;99.90;;;;;;4976934;28;20409;-79
2021/04/08 01:51:00;;;;;;;13.93;4.17;;;3.00;99.90;;;;;;4990651;28;20496;-79
2021/04/08 01:53:26;;;;;;;14.13;4.30;;;3.00;99.90;;;;;;4980026;28;20432;-79
2021/04/08 01:55:56;;;;;;;10.33;5.37;;;3.10;99.90;;;;;;4975194;28;20444;-79
2021/04/08 01:58:23;;;;;;;7.57;4.10;;;2.90;99.90;;;;;;4976098;28;20460;-78
2021/04/08 02:00:50;;;;;;;5.87;3.40;;;3.00;99.90;;;;;;4976280;28;20953;-78
2021/04/08 02:03:16;;;;;;;7.80;4.10;;;3.10;99.90;;;;;;4975990;28;20413;-79
2021/04/08 02:05:42;;;;;;;9.67;3.83;;;3.20;99.90;;;;;;4982135;28;20934;-78
2021/04/08 02:08:10;;;;;;;6.93;4.07;;;3.00;99.90;;;;;;4975626;28;20551;-78
2021/04/08 02:10:37;;;;;;;8.07;4.00;;;3.10;99.90;;;;;;5005736;28;20215;-79
2021/04/08 02:13:05;;;;;;;5.07;3.13;;;3.10;99.90;;;;;;4990326;28;20512;-77
2021/04/08 02:15:32;;;;;;;8.33;3.93;;;3.20;99.90;;;;;;4990546;28;20417;-78
2021/04/08 02:17:59;;;;;;;9.80;4.10;;;3.10;99.90;;;;;;4975804;28;20401;-79
2021/04/08 02:20:29;;;;;;;6.70;3.70;;;3.10;99.90;;;;;;4975375;28;20445;-78
2021/04/08 02:22:58;;;;;;;10.50;3.57;;;3.10;99.90;;;;;;4975710;28;20456;-77
2021/04/08 02:25:27;;;;;;;8.90;3.17;;;3.10;99.90;;;;;;4976001;28;20413;-78
2021/04/08 02:27:53;;;;;;;7.60;3.53;;;3.10;99.90;;;;;;4977034;28;20421;-78
2021/04/08 02:30:22;;;;;;;4.43;3.30;;;3.10;99.90;;;;;;5007903;28;20471;-78
2021/04/08 02:32:48;;;;;;;10.90;3.30;;;3.00;99.90;;;;;;5008342;28;20471;-78
2021/04/08 02:35:16;;;;;;;7.10;3.00;;;3.00;99.90;;;;;;4977346;28;20412;-79
2021/04/08 02:37:43;;;;;;;8.27;3.60;;;3.00;99.90;;;;;;4977122;28;20397;-79
2021/04/08 02:40:11;;;;;;;17.17;4.07;;;3.00;99.90;;;;;;4987180;28;20827;-79
2021/04/08 02:42:36;;;;;;;7.13;3.07;;;3.00;99.90;;;;;;4960800;28;20436;-79
2021/04/08 02:45:07;;;;;;;4.90;2.90;;;3.00;99.90;;;;;;4976945;28;20456;-78
2021/04/08 02:47:33;;;;;;;11.67;3.43;;;3.00;99.90;;;;;;4975466;28;20187;-79
2021/04/08 02:49:59;;;;;;;7.53;2.90;;;3.10;99.90;;;;;;4974514;28;20467;-78
2021/04/08 02:52:39;;;;;;;5.10;2.80;;;3.00;99.90;;;;;;5006131;28;20260;-78
2021/04/08 02:55:26;;;;;;;3.60;2.60;;;2.90;99.90;;;;;;4976267;28;20512;-78
2021/04/08 02:58:01;;;;;;;4.97;2.80;;;3.00;99.90;;;;;;4976742;28;20417;-80
2021/04/08 03:00:36;;;;;;;7.90;2.70;;;3.00;99.90;;;;;;4991173;28;20474;-77
2021/04/08 03:03:10;;;;;;;5.00;2.30;;;3.00;99.90;;;;;;4973123;28;20424;-80
2021/04/08 03:05:40;;;;;;;5.33;3.23;;;3.10;99.90;;;;;;4975997;28;20760;-78
2021/04/08 03:08:09;;;;;;;10.90;3.10;;;3.10;99.90;;;;;;4975718;28;20527;-78
2021/04/08 03:10:37;;;;;;;6.90;3.20;;;3.10;99.90;;;;;;4976644;28;20556;-79
2021/04/08 03:13:04;;;;;;;7.50;3.30;;;3.10;99.90;;;;;;4976215;28;20969;-78
2021/04/08 03:15:37;;;;;;;4.20;3.40;;;3.00;99.90;;;;;;4976103;28;21014;-79
2021/04/08 03:18:16;;;;;;;8.57;4.23;;;3.00;99.90;;;;;;4975359;28;20458;-79
2021/04/08 03:20:51;;;;;;;5.87;4.03;;;3.00;99.90;;;;;;4977096;28;20523;-80
2021/04/08 03:23:18;;;;;;;8.03;3.77;;;3.00;99.90;;;;;;4978048;28;20424;-80
2021/04/08 03:25:46;;;;;;;9.10;4.40;;;3.00;99.90;;;;;;4977590;28;20487;-80
2021/04/08 03:28:13;;;;;;;7.87;4.97;;;3.10;99.90;;;;;;4977896;28;20468;-81
2021/04/08 03:30:41;;;;;;;9.13;4.13;;;3.10;99.90;;;;;;4991459;28;20463;-81
2021/04/08 03:33:11;;;;;;;8.43;4.57;;;3.00;99.90;;;;;;4977437;28;20451;-81
2021/04/08 03:35:37;;;;;;;9.03;4.83;;;3.00;99.90;;;;;;4992250;28;20425;-80
2021/04/08 03:38:04;;;;;;;19.40;4.67;;;3.00;99.90;;;;;;4978409;28;20436;-80
2021/04/08 03:40:31;;;;;;;6.83;5.43;;;2.90;99.90;;;;;;4986342;28;20463;-81
2021/04/08 03:42:57;;;;;;;9.67;5.60;;;2.90;99.90;;;;;;4992769;28;22323;-80
2021/04/08 03:45:22;;;;;;;11.80;5.83;;;2.90;99.90;;;;;;5025300;28;20436;-78
2021/04/08 03:47:50;;;;;;;15.67;6.27;;;2.90;99.90;;;;;;4992820;28;20529;-79
2021/04/08 03:50:17;;;;;;;8.97;6.00;;;2.90;99.90;;;;;;4993449;28;20245;-80
2021/04/08 03:52:44;;;;;;;16.30;6.67;;;2.80;99.90;;;;;;4992494;28;20732;-76
2021/04/08 03:55:11;;;;;;;9.60;7.70;;;2.80;99.90;;;;;;4989989;28;20440;-74
2021/04/08 03:57:40;;;;;;;15.27;7.57;;;2.80;99.90;;;;;;4977079;28;20434;-79
2021/04/08 04:00:09;;;;;;;14.73;6.90;;;2.60;99.90;;;;;;4980591;28;20456;-79
2021/04/08 04:02:36;;;;;;;17.00;6.50;;;2.60;99.90;;;;;;4976841;28;20432;-80
2021/04/08 04:05:05;;;;;;;14.57;6.70;;;2.60;99.90;;;;;;5016194;28;20424;-79
2021/04/08 04:07:33;;;;;;;15.50;7.40;;;2.50;99.90;;;;;;4982872;28;20437;-79
2021/04/08 04:10:00;;;;;;;16.77;7.70;;;2.60;99.90;;;;;;4992443;28;20535;-79
2021/04/08 04:12:26;;;;;;;8.43;6.50;;;2.80;99.90;;;;;;4977231;28;20463;-79
2021/04/08 04:14:55;;;;;;;13.70;6.73;;;2.70;99.90;;;;;;5008194;28;20467;-79
2021/04/08 04:17:29;;;;;;;12.00;7.73;;;2.80;99.90;;;;;;4984681;28;20475;-79
2021/04/08 04:19:56;;;;;;;14.20;7.00;;;2.70;99.90;;;;;;4995904;28;20449;-79
2021/04/08 04:22:22;;;;;;;20.13;7.43;;;2.80;99.90;;;;;;4999851;28;20393;-79
2021/04/08 04:24:49;;;;;;;27.87;8.07;;;2.80;99.90;;;;;;4999904;28;20917;-79
2021/04/08 04:27:14;;;;;;;17.27;8.23;;;2.70;99.90;;;;;;4984073;28;20456;-79
2021/04/08 04:29:40;;;;;;;13.60;7.47;;;2.80;99.90;;;;;;4981889;28;20460;-80
2021/04/08 04:32:09;;;;;;;9.20;6.53;;;2.80;99.90;;;;;;4984361;28;20217;-79
2021/04/08 04:34:35;;;;;;;13.57;8.07;;;2.80;99.90;;;;;;4984050;28;20275;-80
2021/04/08 04:37:00;;;;;;;14.77;7.73;;;2.80;99.90;;;;;;4987785;28;20481;-79
2021/04/08 04:39:26;;;;;;;8.93;6.60;;;2.80;99.90;;;;;;4978364;28;20440;-81
2021/04/08 04:41:51;;;;;;;11.77;8.33;;;2.80;99.90;;;;;;4978384;28;20251;-81
2021/04/08 04:44:19;;;;;;;9.00;6.53;;;2.60;99.90;;;;;;4980578;28;20197;-81
2021/04/08 04:46:45;;;;;;;13.80;7.03;;;2.70;99.90;;;;;;4990963;28;20212;-81
2021/04/08 04:49:10;;;;;;;14.80;8.30;;;2.60;99.90;;;;;;4996402;28;20440;-80
2021/04/08 04:51:36;;;;;;;10.00;7.87;;;2.80;99.90;;;;;;5017443;28;20679;-80
2021/04/08 04:54:02;;;;;;;14.30;8.40;;;2.70;99.90;;;;;;5013116;28;20180;-79
2021/04/08 04:56:27;;;;;;;13.23;7.90;;;2.70;99.90;;;;;;5004849;28;20182;-80
2021/04/08 04:58:53;;;;;;;11.37;7.10;;;2.80;99.90;;;;;;4979573;28;20966;-81
2021/04/08 05:01:18;;;;;;;13.23;8.70;;;2.80;99.90;;;;;;4992066;28;20203;-81
2021/04/08 05:03:44;;;;;;;13.83;7.90;;;2.70;99.90;;;;;;4994248;28;20186;-81
2021/04/08 05:06:09;;;;;;;10.57;6.73;;;2.70;99.90;;;;;;4995908;28;20593;-81
2021/04/08 05:08:35;;;;;;;17.23;9.37;;;2.70;99.90;;;;;;4991004;28;20204;-81
2021/04/08 05:11:02;;;;;;;17.13;7.93;;;2.70;99.90;;;;;;4994715;28;20208;-81
2021/04/08 05:13:27;;;;;;;12.60;7.00;;;2.80;99.90;;;;;;4979403;28;20182;-81
2021/04/08 05:15:53;;;;;;;15.90;7.63;;;2.80;99.90;;;;;;4995117;28;20475;-81
2021/04/08 05:18:18;;;;;;;10.80;7.77;;;2.80;99.90;;;;;;4981258;28;20539;-81
2021/04/08 05:20:44;;;;;;;17.10;8.90;;;2.90;99.90;;;;;;4981469;28;20573;-82
2021/04/08 05:23:09;;;;;;;8.67;7.77;;;3.00;99.90;;;;;;4980509;28;20183;-81
2021/04/08 05:25:35;;;;;;;10.83;7.70;;;3.00;99.90;;;;;;4988508;28;20189;-80
2021/04/08 05:28:01;;;;;;;14.53;7.63;;;3.10;99.90;;;;;;4980158;28;20276;-80
2021/04/08 05:30:26;;;;;;;13.33;6.40;;;3.00;99.90;;;;;;4979663;28;20211;-80
2021/04/08 05:32:52;;;;;;;9.87;7.57;;;3.10;99.90;;;;;;4981286;28;20200;-80
2021/04/08 05:35:18;;;;;;;13.03;7.93;;;3.10;99.90;;;;;;4981496;28;20229;-81
2021/04/08 05:37:43;;;;;;;9.97;6.47;;;3.10;99.90;;;;;;4972980;28;20193;-81
2021/04/08 05:40:09;;;;;;;14.83;6.60;;;3.20;99.90;;;;;;4999910;28;20459;-81
2021/04/08 05:42:35;;;;;;;12.53;6.77;;;3.30;99.90;;;;;;4997364;28;20198;-81
2021/04/08 05:45:01;;;;;;;10.80;6.97;;;3.20;99.90;;;;;;4985016;28;20439;-80
2021/04/08 05:47:26;;;;;;;10.00;6.90;;;3.40;99.90;;;;;;5012967;28;20192;-81
2021/04/08 05:49:52;;;;;;;13.00;7.00;;;3.30;99.90;;;;;;4998037;28;20744;-81
2021/04/08 05:52:17;;;;;;;8.43;6.10;;;3.40;99.90;;;;;;5030798;28;20187;-81
2021/04/08 05:54:43;;;;;;;8.03;6.00;;;3.30;99.90;;;;;;5031958;28;20320;-81
2021/04/08 05:57:09;;;;;;;11.43;6.87;;;3.40;99.90;;;;;;4983502;28;20204;-81
2021/04/08 05:59:34;;;;;;;10.03;7.10;;;3.30;99.90;;;;;;4994787;28;20189;-80
2021/04/08 06:02:00;;;;;;;16.13;7.10;;;3.30;99.90;;;;;;5001026;28;20578;-79
2021/04/08 06:04:25;;;;;;;9.20;6.43;;;3.40;99.90;;;;;;4998060;28;20184;-79
2021/04/08 06:06:51;;;;;;;10.37;6.80;;;3.50;99.90;;;;;;5028492;28;20624;-79
2021/04/08 06:09:17;;;;;;;12.53;7.37;;;3.40;99.90;;;;;;4988331;28;20185;-79
2021/04/08 06:11:42;;;;;;;10.63;7.10;;;3.40;99.90;;;;;;4985391;28;20200;-80
2021/04/08 06:14:08;;;;;;;11.63;6.83;;;3.50;99.90;;;;;;4986991;28;20183;-79
2021/04/08 06:16:33;;;;;;;9.00;6.37;;;3.60;99.90;;;;;;4993967;28;20645;-80
2021/04/08 06:18:59;;;;;;;24.13;7.60;;;3.60;99.90;;;;;;4984727;28;20202;-79
2021/04/08 06:21:24;;;;;;;15.90;7.13;;;3.60;99.90;;;;;;4998115;28;20603;-80
2021/04/08 06:23:53;;;;;;;12.07;7.27;;;3.70;99.90;;;;;;5017533;28;20188;-80
2021/04/08 06:26:19;;;;;;;7.20;5.87;;;3.70;99.90;;;;;;4995387;28;20186;-80
2021/04/08 06:28:44;;;;;;;8.00;5.10;;;3.70;99.90;;;;;;4986565;28;20459;-79
2021/04/08 06:31:10;;;;;;;7.67;5.57;;;3.80;99.90;;;;;;4996350;28;20464;-79
2021/04/08 06:33:36;;;;;;;17.53;6.23;;;3.60;99.90;;;;;;4989857;28;20235;-79
2021/04/08 06:36:01;;;;;;;13.03;5.93;;;3.70;99.90;;;;;;4996446;28;20268;-79
2021/04/08 06:38:27;;;;;;;8.60;6.90;;;3.80;99.90;;;;;;4995292;28;20190;-79
2021/04/08 06:40:55;;;;;;;13.53;6.80;;;3.90;99.90;;;;;;4998273;28;20203;-81
2021/04/08 06:43:21;;;;;;;8.93;5.37;;;4.10;99.90;;;;;;4988932;28;20208;-81
2021/04/08 06:45:49;;;;;;;9.50;6.23;;;4.30;99.90;;;;;;4987267;28;20460;-80
2021/04/08 06:48:23;;;;;;;12.57;6.50;;;4.50;99.90;;;;;;4996866;28;20184;-80
2021/04/08 06:50:53;;;;;;;9.10;5.80;;;4.60;99.90;;;;;;4987781;28;20496;-80
2021/04/08 06:53:19;;;;;;;11.43;5.97;;;4.70;99.90;;;;;;5005854;28;20799;-80
2021/04/08 06:55:47;;;;;;;11.20;7.13;;;4.80;99.90;;;;;;4996822;28;20523;-80
2021/04/08 06:58:14;;;;;;;11.03;5.53;;;4.70;99.90;;;;;;5023935;28;20453;-80
2021/04/08 07:00:41;;;;;;;9.43;5.73;;;4.70;99.90;;;;;;4982383;28;20507;-80
2021/04/08 07:03:08;;;;;;;13.10;5.93;;;5.20;99.90;;;;;;4983690;28;20965;-80
2021/04/08 07:05:34;;;;;;;8.77;6.27;;;5.90;99.90;;;;;;4984973;28;20478;-79
2021/04/08 07:07:59;;;;;;;8.50;5.70;;;6.10;99.90;;;;;;4995579;28;20432;-81
2021/04/08 07:10:26;;;;;;;9.00;5.77;;;6.30;99.90;;;;;;4960164;28;20496;-81
2021/04/08 07:12:53;;;;;;;9.10;4.90;;;6.50;99.90;;;;;;4985410;28;20243;-81
2021/04/08 07:15:19;;;;;;;11.23;4.60;;;7.00;99.90;;;;;;4985926;28;20457;-81
2021/04/08 07:17:45;;;;;;;9.93;6.20;;;7.10;99.90;;;;;;4987043;28;20515;-81
2021/04/08 07:20:11;;;;;;;16.67;11.23;;;6.80;99.90;;;;;;4989994;28;20448;-81
2021/04/08 07:22:39;;;;;;;7.77;4.53;;;7.10;99.90;;;;;;5010935;28;20186;-82
2021/04/08 07:25:23;;;;;;;9.73;4.70;;;7.00;99.90;;;;;;5021665;28;20436;-81
2021/04/08 07:27:48;;;;;;;7.80;4.90;;;7.20;99.90;;;;;;5007996;28;20930;-81
2021/04/08 07:30:18;;;;;;;9.33;4.60;;;7.40;99.90;;;;;;4977022;28;20482;-81
2021/04/08 07:32:44;;;;;;;5.40;4.80;;;7.30;99.90;;;;;;4996027;28;20185;-81
2021/04/08 07:35:18;;;;;;;12.50;4.93;;;7.10;99.90;;;;;;4983303;28;20448;-80
2021/04/08 07:38:03;;;;;;;8.67;4.80;;;7.00;99.90;;;;;;4992247;28;20236;-80
2021/04/08 07:40:29;;;;;;;6.10;4.17;;;7.40;99.90;;;;;;4988458;28;20456;-80
2021/04/08 07:42:55;;;;;;;9.10;5.13;;;7.60;99.90;;;;;;4992201;28;20417;-80
2021/04/08 07:45:35;;;;;;;7.20;5.13;;;7.30;99.90;;;;;;4991964;28;20257;-80
2021/04/08 07:48:03;;;;;;;8.07;6.30;;;7.20;99.90;;;;;;4990982;28;20437;-80
2021/04/08 07:50:30;;;;;;;7.40;5.50;;;7.50;99.90;;;;;;4990590;28;20543;-81
2021/04/08 07:52:57;;;;;;;7.30;5.27;;;7.20;99.90;;;;;;4980137;28;20437;-80
2021/04/08 07:55:29;;;;;;;10.80;5.30;;;7.50;99.90;;;;;;4980406;28;20542;-80
2021/04/08 07:58:16;;;;;;;10.80;5.37;;;7.50;99.90;;;;;;5012084;28;20433;-79
2021/04/08 08:00:50;;;;;;;10.50;5.80;;;7.20;99.90;;;;;;4990669;28;20451;-79
2021/04/08 08:03:28;;;;;;;15.70;5.03;;;7.20;99.90;;;;;;4978742;28;20462;-78
2021/04/08 08:05:58;;;;;;;8.37;5.90;;;7.10;99.90;;;;;;4977209;28;20428;-79
2021/04/08 08:08:33;;;;;;;8.17;4.17;;;7.20;99.90;;;;;;4973632;28;20492;-78
2021/04/08 08:11:09;;;;;;;12.97;9.87;;;8.10;99.90;;;;;;4981505;28;20491;-79
2021/04/08 08:13:37;;;;;;;9.10;5.60;;;8.80;99.90;;;;;;4974119;28;20937;-79
2021/04/08 08:16:04;;;;;;;12.73;5.30;;;8.70;99.90;;;;;;4976907;28;20440;-79
2021/04/08 08:18:41;;;;;;;15.90;4.93;;;8.40;99.90;;;;;;4980989;28;20489;-79
2021/04/08 08:21:12;;;;;;;6.23;4.30;;;9.20;99.90;;;;;;4978985;28;20454;-79
2021/04/08 08:23:39;;;;;;;9.07;4.03;;;10.30;99.90;;;;;;4984230;28;20614;-79
2021/04/08 08:26:28;;;;;;;6.97;4.50;;;11.40;97.10;;;;;;4977481;28;20424;-79
2021/04/08 08:29:13;;;;;;;12.10;4.47;;;11.10;89.50;;;;;;4974865;28;20942;-79
2021/04/08 08:31:43;;;;;;;11.23;4.67;;;11.70;91.60;;;;;;4991875;28;20459;-79
2021/04/08 08:34:14;;;;;;;5.73;4.07;;;10.80;80.50;;;;;;4990378;28;20420;-79
2021/04/08 08:36:41;;;;;;;7.90;4.73;;;10.50;90.20;;;;;;4975055;28;20842;-79
2021/04/08 08:39:10;;;;;;;7.53;4.63;;;10.20;87.90;;;;;;4974813;28;20417;-79
2021/04/08 08:41:38;;;;;;;7.47;5.10;;;9.50;84.80;;;;;;4974316;28;20444;-79
2021/04/08 08:44:09;;;;;;;10.10;4.63;;;8.90;90.40;;;;;;4974906;28;20456;-79
2021/04/08 08:46:58;;;;;;;10.83;4.20;;;9.20;91.30;;;;;;4989996;28;20424;-79
2021/04/08 08:49:36;;;;;;;12.70;5.07;;;9.30;88.50;;;;;;4990795;28;20425;-79
2021/04/08 08:52:02;;;;;;;8.17;4.93;;;9.20;87.70;;;;;;4977782;28;20476;-80
2021/04/08 08:54:32;;;;;;;10.80;5.03;;;9.70;96.80;;;;;;4979088;28;20515;-79
2021/04/08 08:56:58;;;;;;;11.37;7.63;;;9.80;92.50;;;;;;4980694;28;20960;-79
2021/04/08 08:59:24;;;;;;;9.00;4.40;;;10.00;91.00;;;;;;4981805;28;20477;-80
2021/04/08 09:01:50;;;;;;;11.40;5.33;;;9.80;88.80;;;;;;4985918;28;20957;-83
2021/04/08 09:04:15;;;;;;;9.13;4.40;;;10.30;91.10;;;;;;4981351;28;20756;-83
2021/04/08 09:06:42;;;;;;;12.03;4.80;;;10.20;84.30;;;;;;5018383;28;20476;-83
2021/04/08 09:09:11;;;;;;;10.53;4.63;;;10.90;90.60;;;;;;4980860;28;20448;-83
2021/04/08 09:11:38;;;;;;;8.07;4.70;;;11.20;90.20;;;;;;4996308;28;20807;-83
2021/04/08 09:14:05;;;;;;;8.33;5.23;;;11.10;75.80;;;;;;4994899;28;20832;-83
2021/04/08 09:16:31;;;;;;;9.33;4.63;;;11.00;76.10;;;;;;4994994;28;20410;-83
2021/04/08 09:19:05;;;;;;;6.27;4.23;;;10.50;68.50;;;;;;4997256;28;20638;-82
2021/04/08 09:21:49;;;;;;;7.50;4.17;;;10.90;74.10;;;;;;4981960;28;20452;-82
2021/04/08 09:24:29;;;;;;;9.10;4.60;;;11.90;78.50;;;;;;4994341;28;20464;-83
2021/04/08 09:26:57;;;;;;;6.50;4.30;;;11.80;73.60;;;;;;4977937;28;20436;-79
2021/04/08 09:29:41;;;;;;;8.20;4.40;;;11.10;65.70;;;;;;4981539;28;20440;-79
2021/04/08 09:32:34;;;;;;;8.60;4.40;;;10.90;66.90;;;;;;4980876;28;20480;-80
2021/04/08 09:35:09;;;;;;;12.07;4.43;;;10.60;61.00;;;;;;4989657;28;20425;-80
2021/04/08 09:37:47;;;;;;;6.67;3.93;;;10.90;65.90;;;;;;4993339;28;21469;-78
2021/04/08 09:40:21;;;;;;;3.83;3.27;;;11.90;64.70;;;;;;4978256;28;20482;-79
2021/04/08 09:42:50;;;;;;;6.57;3.90;;;12.20;56.90;;;;;;4979857;28;20432;-78
2021/04/08 09:45:16;;;;;;;7.80;4.33;;;13.00;57.20;;;;;;4977463;28;20468;-79
2021/04/08 09:47:42;;;;;;;13.30;4.10;;;13.40;53.40;;;;;;5011992;28;21005;-80
2021/04/08 09:50:08;;;;;;;2.80;2.60;;;13.00;52.80;;;;;;4991806;28;20208;-79
2021/04/08 09:52:56;;;;;;;3.30;2.97;;;14.00;55.30;;;;;;4978467;28;20269;-80
2021/04/08 09:55:32;;;;;;;5.07;4.00;;;15.00;51.60;;;;;;4976928;28;20535;-80
2021/04/08 09:58:03;;;;;;;4.70;3.30;;;15.50;47.30;;;;;;4975789;28;20441;-80
2021/04/08 10:00:29;;;;;;;4.63;3.30;;;14.70;43.20;;;;;;4993244;28;20840;-80
2021/04/08 10:03:04;;;;;;;5.93;3.37;;;13.50;42.50;;;;;;4975735;28;20423;-78
2021/04/08 10:05:34;;;;;;;5.93;3.30;;;11.90;45.50;;;;;;4979228;28;20890;-78
2021/04/08 10:08:00;;;;;;;7.77;3.10;;;11.90;46.20;;;;;;4979254;28;20437;-79
2021/04/08 10:10:41;;;;;;;3.37;3.07;;;11.30;45.20;;;;;;4977840;28;20464;-79
2021/04/08 10:13:25;;;;;;;5.03;3.20;;;11.90;45.50;;;;;;4990313;28;20436;-80
2021/04/08 10:15:53;;;;;;;5.60;3.70;;;12.30;46.00;;;;;;4991635;28;20852;-80
2021/04/08 10:18:22;;;;;;;3.87;3.17;;;11.70;47.00;;;;;;4976925;28;20796;-79
2021/04/08 10:20:50;;;;;;;7.87;4.57;;;11.90;47.80;;;;;;4977216;28;20540;-79
2021/04/08 10:23:49;;;;;;;11.47;3.30;;;13.10;50.00;;;;;;4977136;28;20437;-77
2021/04/08 10:26:17;;;;;;;5.33;3.70;;;12.90;48.30;;;;;;4978272;28;20445;-79
2021/04/08 10:28:51;;;;;;;8.23;3.50;;;13.10;51.00;;;;;;4979239;28;20452;-80
2021/04/08 10:31:41;;;;;;;8.23;3.47;;;12.90;47.40;;;;;;4976538;28;20526;-80
2021/04/08 10:34:07;;;;;;;6.67;3.60;;;12.20;44.70;;;;;;4980003;28;20476;-80
2021/04/08 10:36:36;;;;;;;4.30;3.10;;;12.60;48.10;;;;;;4990351;28;20440;-80
2021/04/08 10:39:21;;;;;;;8.97;3.33;;;13.90;49.30;;;;;;4992113;28;20268;-79
2021/04/08 10:42:11;;;;;;;9.43;5.30;;;13.80;43.50;;;;;;4976205;28;20519;-79
2021/04/08 10:44:40;;;;;;;6.97;4.10;;;12.90;44.90;;;;;;4991323;28;20483;-80
2021/04/08 10:47:24;;;;;;;4.57;3.50;;;13.40;46.50;;;;;;4977413;28;20429;-80
2021/04/08 10:49:58;;;;;;;6.47;4.00;;;13.80;45.90;;;;;;4987497;28;20457;-79
2021/04/08 10:52:27;;;;;;;6.40;3.80;;;13.90;46.70;;;;;;4974054;28;20432;-79
2021/04/08 10:54:59;;;;;;;5.93;4.43;;;12.90;44.40;;;;;;4973910;28;20448;-79
2021/04/08 10:57:26;;;;;;;11.70;4.23;;;13.10;44.30;;;;;;4991426;28;20522;-79
2021/04/08 10:59:52;;;;;;;4.83;4.13;;;13.20;46.40;;;;;;4976058;28;20492;-79
2021/04/08 11:02:26;;;;;;;8.00;3.80;;;12.60;44.60;;;;;;4973460;28;20557;-80
2021/04/08 11:04:53;;;;;;;14.33;5.40;;;13.00;48.60;;;;;;4982639;28;20420;-80
2021/04/08 11:07:23;;;;;;;8.20;5.17;;;12.30;44.80;;;;;;4976689;28;20460;-79
2021/04/08 11:09:49;;;;;;;5.90;5.40;;;12.10;43.80;;;;;;4972539;28;20825;-78
2021/04/08 11:12:21;;;;;;;8.23;4.30;;;13.50;49.10;;;;;;4981010;28;20437;-80
2021/04/08 11:14:53;;;;;;;11.43;4.60;;;13.80;46.20;;;;;;4979772;28;20435;-79
2021/04/08 11:17:20;;;;;;;5.23;3.93;;;14.20;46.40;;;;;;4980176;28;20829;-80
2021/04/08 11:19:46;;;;;;;6.83;4.87;;;14.70;47.20;;;;;;4993876;28;20935;-80
2021/04/08 11:22:17;;;;;;;7.47;5.70;;;15.70;47.00;;;;;;4974515;28;20927;-80
2021/04/08 11:24:44;;;;;;;7.50;4.87;;;13.60;41.80;;;;;;4982122;28;20420;-79
2021/04/08 11:27:10;;;;;;;4.53;3.90;;;13.60;41.90;;;;;;5013300;28;20499;-80
2021/04/08 11:29:36;;;;;;;5.63;4.33;;;14.50;45.70;;;;;;4970854;28;20489;-79
2021/04/08 11:32:05;;;;;;;15.63;12.50;;;15.10;44.50;;;;;;4974872;28;20425;-79
2021/04/08 11:34:44;;;;;;;5.20;3.27;;;15.30;43.50;;;;;;5008256;28;20658;-80
2021/04/08 11:37:11;;;;;;;6.40;4.07;;;14.60;42.20;;;;;;4972152;28;20922;-80
2021/04/08 11:39:38;;;;;;;10.03;4.50;;;15.10;44.90;;;;;;4973645;28;20787;-80
2021/04/08 11:42:14;;;;;;;4.97;4.27;;;15.60;43.60;;;;;;4973754;28;20512;-81
2021/04/08 11:44:40;;;;;;;5.27;4.20;;;16.20;43.50;;;;;;4973796;28;20937;-79
2021/04/08 11:47:17;;;;;;;4.73;4.20;;;16.00;41.90;;;;;;4975292;28;20416;-79
2021/04/08 11:49:51;;;;;;;4.70;4.03;;;15.70;41.40;;;;;;4974698;28;20212;-81
2021/04/08 11:52:23;;;;;;;10.80;4.63;;;16.10;43.60;;;;;;4973797;28;20525;-81
2021/04/08 11:55:07;;;;;;;7.37;4.60;;;15.20;40.10;;;;;;4975204;28;20417;-81
2021/04/08 11:57:33;;;;;;;6.90;6.20;;;15.90;41.80;;;;;;4974917;28;20436;-79
2021/04/08 12:00:12;;;;;;;6.23;5.30;;;16.50;42.80;;;;;;4977627;28;20795;-80
2021/04/08 12:02:39;;;;;;;6.03;4.13;;;16.60;40.00;;;;;;4980686;28;20435;-81
2021/04/08 12:05:12;;;;;;;5.90;5.13;;;15.90;38.90;;;;;;4975567;28;20790;-80
2021/04/08 12:07:45;;;;;;;7.50;4.67;;;15.00;38.90;;;;;;4978017;28;20437;-80
2021/04/08 12:10:26;;;;;;;5.70;5.00;;;15.80;41.60;;;;;;4985324;28;20527;-81
2021/04/08 12:13:12;;;;;;;5.50;4.37;;;15.70;41.80;;;;;;5004227;28;20442;-81
2021/04/08 12:15:39;;;;;;;9.87;5.20;;;15.90;42.20;;;;;;4989122;28;20432;-81
2021/04/08 12:18:15;;;;;;;5.77;5.17;;;15.00;39.60;;;;;;4990510;28;20499;-80
2021/04/08 12:20:41;;;;;;;6.53;4.67;;;14.00;39.90;;;;;;4991779;28;20479;-79
2021/04/08 12:23:12;;;;;;;7.70;5.70;;;14.60;42.40;;;;;;5014309;28;20461;-81
2021/04/08 12:25:42;;;;;;;7.10;5.20;;;14.70;41.70;;;;;;4987900;28;20186;-80
2021/04/08 12:28:08;;;;;;;9.43;4.43;;;15.60;44.00;;;;;;4971750;28;20440;-80
2021/04/08 12:30:34;;;;;;;6.47;4.50;;;15.40;41.10;;;;;;4990113;28;20459;-81
2021/04/08 12:32:59;;;;;;;14.00;5.20;;;14.40;40.50;;;;;;4979057;28;20436;-81
2021/04/08 12:35:26;;;;;;;8.40;5.87;;;14.20;40.30;;;;;;4979166;28;20178;-80
2021/04/08 12:37:52;;;;;;;7.00;4.73;;;14.20;42.10;;;;;;4985696;28;20231;-80
2021/04/08 12:40:18;;;;;;;5.40;4.50;;;15.00;42.70;;;;;;4981898;28;20456;-81
2021/04/08 12:42:44;;;;;;;6.13;5.50;;;15.10;41.50;;;;;;4984782;28;20191;-82
2021/04/08 12:45:16;;;;;;;7.13;4.93;;;14.50;39.90;;;;;;4977088;28;20448;-81
2021/04/08 12:47:42;;;;;;;5.47;5.00;;;14.60;40.80;;;;;;4992590;28;20428;-81
2021/04/08 12:50:08;;;;;;;5.87;4.53;;;15.10;40.10;;;;;;4989636;28;20472;-81
2021/04/08 12:52:33;;;;;;;12.87;4.90;;;15.40;43.50;;;;;;4991405;28;20178;-81
2021/04/08 12:54:59;;;;;;;12.20;9.87;;;16.00;43.90;;;;;;4973009;28;20990;-79
2021/04/08 12:57:24;;;;;;;6.47;5.13;;;15.90;41.30;;;;;;5009530;28;20170;-80
2021/04/08 12:59:50;;;;;;;5.60;5.10;;;15.00;40.20;;;;;;5020210;28;20263;-81
2021/04/08 13:02:15;;;;;;;7.43;4.80;;;14.80;41.00;;;;;;4975142;28;20182;-80